Main page
METAR-TAF:

METAR-TAF

Airports :

Kilimanjaro International Airport

Kilimanjaro, Tanzania

latitude: 03-25S, longitude: 037-04E, elevation: 891 m

Current weather observation

The report was made 2 hours and 15 minutes ago, at 12:00 UTC
Wind 5 kt from the East
Temperature 24°C
Humidity 50%
Pressure 1019 hPa
Visibility 10 km or more
Scattered clouds at a height of 3200 ft

METAR: HTKJ 181200Z 09005KT 9999 SCT032 24/13 Q1019 NOSIG

Time: 17:15 (14:15 UTC)

Forecast

The report was made 9 hours and 15 minutes ago, at 05:00 UTC
Forecast valid from 18 at 06 UTC to 19 at 06 UTC
Wind 5 kt from the East
Visibility 10 km or more
Scattered clouds at a height of 2800 ft
Becoming
from 18 at 14 UTC to 18 at 16 UTC
Visibility 10 km or more
no clouds below 1500 m and no cumulonimbus
Becoming
from 18 at 19 UTC to 18 at 21 UTC
Scattered clouds at a height of 2400 ft

TAF: HTKJ 180500Z 1806/1906 09005KT 9999 SCT028 BECMG 1814/1816 CAVOK BECMG 1819/1821 SCT024

Weather observations and forecasts of more than 4000 airports (METAR and TAF reports).

The available stations are represented by yellow and red dots on the map.

Hover mouse over dot to see the name of the station.

Then click to see weather observations and forecasts.

To change the map : click on the green buttons with a black cross to zoom in, on the green button with a dash to zoom out, or on the green arrows for adjacent maps.


METAR-TAF: